createdAt,value
2022-09-23T00:00:03.224Z,51.0
2022-09-23T00:02:02.298Z,52.0
2022-09-23T00:04:02.457Z,52.0
2022-09-23T00:06:04.744Z,52.0
2022-09-23T00:08:02.957Z,53.0
2022-09-23T00:10:02.997Z,53.0
2022-09-23T00:12:06.861Z,53.0
2022-09-23T00:14:02.360Z,54.0
2022-09-23T00:16:04.652Z,54.0
2022-09-23T00:18:02.183Z,54.0
2022-09-23T00:20:03.243Z,54.0
2022-09-23T00:22:02.435Z,54.0
2022-09-23T00:24:02.359Z,54.0
2022-09-23T00:26:05.356Z,53.0
2022-09-23T00:28:02.829Z,55.0
2022-09-23T00:30:04.495Z,55.0
2022-09-23T00:32:02.561Z,53.0
2022-09-23T00:34:02.483Z,54.0
2022-09-23T00:36:04.714Z,54.0
2022-09-23T00:38:02.247Z,53.0
2022-09-23T00:40:03.542Z,52.0
2022-09-23T00:42:02.394Z,52.0
2022-09-23T00:44:12.764Z,52.0
2022-09-23T00:46:03.856Z,51.0
2022-09-23T00:48:04.671Z,52.0
2022-09-23T00:50:08.792Z,52.0
2022-09-23T00:52:09.887Z,52.0
2022-09-23T00:54:06.107Z,52.0
2022-09-23T00:56:06.816Z,53.0
2022-09-23T00:58:07.815Z,53.0
2022-09-23T01:00:02.464Z,53.0
2022-09-23T01:02:03.715Z,52.0
2022-09-23T01:04:03.043Z,52.0
2022-09-23T01:06:02.191Z,52.0
2022-09-23T01:08:04.523Z,53.0
2022-09-23T01:10:03.933Z,54.0
2022-09-23T01:12:13.587Z,54.0
2022-09-23T01:14:16.322Z,54.0
2022-09-23T01:16:09.014Z,54.0
2022-09-23T01:18:13.213Z,54.0
2022-09-23T01:20:21.223Z,53.0
2022-09-23T01:22:10.603Z,53.0
2022-09-23T01:24:21.466Z,53.0
2022-09-23T01:26:19.910Z,54.0
2022-09-23T01:28:21.348Z,54.0
2022-09-23T01:30:17.209Z,54.0
2022-09-23T01:32:12.008Z,55.0
2022-09-23T01:34:11.000Z,54.0
2022-09-23T01:36:09.552Z,54.0
2022-09-23T01:38:14.683Z,55.0
2022-09-23T01:40:11.117Z,55.0
2022-09-23T01:42:12.729Z,55.0
2022-09-23T01:44:09.680Z,55.0
2022-09-23T01:46:07.252Z,54.0
2022-09-23T01:48:13.323Z,54.0
2022-09-23T01:50:15.812Z,55.0
2022-09-23T01:52:11.187Z,56.0
2022-09-23T01:54:09.830Z,56.0
2022-09-23T01:56:08.531Z,56.0
2022-09-23T01:58:07.455Z,56.0
2022-09-23T02:00:09.476Z,56.0
2022-09-23T02:02:08.935Z,56.0
2022-09-23T02:04:08.459Z,56.0
2022-09-23T02:06:06.516Z,56.0
2022-09-23T02:08:08.858Z,56.0
2022-09-23T02:10:12.356Z,57.0
2022-09-23T02:12:06.563Z,56.0
2022-09-23T02:14:08.930Z,57.0
2022-09-23T02:16:10.885Z,57.0
2022-09-23T02:18:07.956Z,57.0
2022-09-23T02:20:07.075Z,57.0
2022-09-23T02:22:08.646Z,57.0
2022-09-23T02:24:09.766Z,57.0
2022-09-23T02:26:07.311Z,58.0
2022-09-23T02:28:10.755Z,60.0
2022-09-23T02:30:10.172Z,59.0
2022-09-23T02:32:12.414Z,62.0
2022-09-23T02:34:12.693Z,62.0
2022-09-23T02:36:10.350Z,63.0
2022-09-23T02:38:13.261Z,64.0
2022-09-23T02:40:12.017Z,63.0
2022-09-23T02:42:07.415Z,62.0
2022-09-23T02:44:07.740Z,63.0
2022-09-23T02:46:03.539Z,62.0
2022-09-23T02:48:06.578Z,63.0
2022-09-23T02:50:02.393Z,63.0
2022-09-23T02:52:07.239Z,62.0
2022-09-23T02:54:03.459Z,62.0
2022-09-23T02:56:03.931Z,62.0
2022-09-23T02:58:05.061Z,62.0
2022-09-23T03:00:02.605Z,64.0
2022-09-23T03:02:16.993Z,64.0
2022-09-23T03:04:14.371Z,63.0
2022-09-23T03:06:10.248Z,64.0
2022-09-23T03:08:19.861Z,63.0
2022-09-23T03:10:10.727Z,65.0
2022-09-23T03:12:12.821Z,65.0
2022-09-23T03:14:16.898Z,66.0
2022-09-23T03:16:10.930Z,65.0
2022-09-23T03:18:08.576Z,64.0
2022-09-23T03:20:09.787Z,65.0
2022-09-23T03:22:08.821Z,65.0
2022-09-23T03:24:07.538Z,65.0
2022-09-23T03:26:08.364Z,65.0
2022-09-23T03:28:04.094Z,65.0
2022-09-23T03:30:03.810Z,65.0
2022-09-23T03:32:07.704Z,65.0
2022-09-23T03:34:07.238Z,66.0
2022-09-23T03:36:16.143Z,66.0
2022-09-23T03:38:16.917Z,66.0
2022-09-23T03:40:10.085Z,66.0
2022-09-23T03:42:14.902Z,67.0
2022-09-23T03:44:03.916Z,67.0
2022-09-23T03:46:03.254Z,67.0
2022-09-23T03:48:02.382Z,68.0
2022-09-23T03:50:02.845Z,68.0
2022-09-23T03:52:03.109Z,68.0
2022-09-23T03:54:02.224Z,68.0
2022-09-23T03:56:03.213Z,68.0
2022-09-23T03:58:02.904Z,68.0
2022-09-23T04:00:02.729Z,68.0
2022-09-23T04:02:03.127Z,68.0
2022-09-23T04:04:02.538Z,69.0
2022-09-23T04:06:02.237Z,69.0
2022-09-23T04:08:03.653Z,69.0
2022-09-23T04:10:02.194Z,69.0
2022-09-23T04:12:03.460Z,70.0
2022-09-23T04:14:03.954Z,70.0
2022-09-23T04:16:03.718Z,70.0
2022-09-23T04:18:02.157Z,70.0
2022-09-23T04:20:03.779Z,71.0
2022-09-23T04:22:02.362Z,71.0
2022-09-23T04:24:02.881Z,71.0
2022-09-23T04:26:02.166Z,71.0
2022-09-23T04:28:02.349Z,71.0
2022-09-23T04:30:02.124Z,71.0
2022-09-23T04:32:02.615Z,72.0
2022-09-23T04:34:02.306Z,72.0
2022-09-23T04:36:03.102Z,72.0
2022-09-23T04:38:02.119Z,72.0
2022-09-23T04:40:03.475Z,73.0
2022-09-23T04:42:03.645Z,73.0
2022-09-23T04:44:02.505Z,73.0
2022-09-23T04:46:05.840Z,73.0
2022-09-23T04:48:03.178Z,73.0
2022-09-23T04:50:02.218Z,73.0
2022-09-23T04:52:05.027Z,74.0
2022-09-23T04:54:02.344Z,74.0
2022-09-23T04:56:02.851Z,74.0
2022-09-23T04:58:02.318Z,74.0
2022-09-23T05:00:02.629Z,74.0
2022-09-23T05:02:02.277Z,75.0
2022-09-23T05:04:05.009Z,75.0
2022-09-23T05:06:02.160Z,75.0
2022-09-23T05:08:02.581Z,75.0
2022-09-23T05:10:02.184Z,75.0
2022-09-23T05:12:03.011Z,75.0
2022-09-23T05:14:02.126Z,75.0
2022-09-23T05:16:04.555Z,75.0
2022-09-23T05:18:02.232Z,75.0
2022-09-23T05:20:03.305Z,75.0
2022-09-23T05:22:02.266Z,75.0
2022-09-23T05:24:02.946Z,75.0
2022-09-23T05:26:05.576Z,75.0
2022-09-23T05:28:02.354Z,75.0
2022-09-23T05:30:02.112Z,75.0
2022-09-23T05:32:02.796Z,75.0
2022-09-23T05:34:04.914Z,76.0
2022-09-23T05:36:04.296Z,76.0
2022-09-23T05:38:02.131Z,76.0
2022-09-23T05:40:02.648Z,76.0
2022-09-23T05:42:02.723Z,77.0
2022-09-23T05:44:02.546Z,77.0
2022-09-23T05:46:07.937Z,77.0
2022-09-23T05:48:02.383Z,77.0
2022-09-23T05:50:02.108Z,77.0
2022-09-23T05:52:03.246Z,77.0
2022-09-23T05:54:03.816Z,77.0
2022-09-23T05:58:02.153Z,77.0
2022-09-23T06:00:02.655Z,78.0
2022-09-23T06:02:02.219Z,78.0
2022-09-23T06:04:05.573Z,78.0
2022-09-23T06:06:02.212Z,78.0
2022-09-23T06:08:02.476Z,79.0
2022-09-23T06:10:02.304Z,78.0
2022-09-23T06:12:02.390Z,79.0
2022-09-23T06:14:03.845Z,79.0
2022-09-23T06:16:02.826Z,79.0
2022-09-23T06:18:03.623Z,79.0
2022-09-23T06:20:03.543Z,79.0
2022-09-23T06:22:02.287Z,79.0
2022-09-23T06:24:03.433Z,80.0
2022-09-23T06:26:04.120Z,80.0
2022-09-23T06:28:03.802Z,80.0
2022-09-23T06:30:02.289Z,80.0
2022-09-23T06:32:04.342Z,80.0
2022-09-23T06:34:10.539Z,80.0
2022-09-23T06:36:04.534Z,80.0
2022-09-23T06:38:04.443Z,80.0
2022-09-23T06:40:02.543Z,80.0
2022-09-23T06:42:03.007Z,80.0
2022-09-23T06:44:02.783Z,80.0
2022-09-23T06:46:04.927Z,81.0
2022-09-23T06:48:05.684Z,81.0
2022-09-23T06:50:02.349Z,81.0
2022-09-23T06:52:02.653Z,81.0
2022-09-23T06:54:02.271Z,81.0
2022-09-23T06:56:05.274Z,82.0
2022-09-23T06:58:02.152Z,82.0
2022-09-23T07:00:02.938Z,82.0
2022-09-23T07:02:02.444Z,81.0
2022-09-23T07:04:02.930Z,81.0
2022-09-23T07:06:02.452Z,82.0
2022-09-23T07:08:03.011Z,82.0
2022-09-23T07:10:02.290Z,82.0
2022-09-23T07:12:02.509Z,82.0
2022-09-23T07:14:02.362Z,82.0
2022-09-23T07:16:02.711Z,82.0
2022-09-23T07:18:02.167Z,82.0
2022-09-23T07:20:03.604Z,82.0
2022-09-23T07:22:02.174Z,82.0
2022-09-23T07:24:02.337Z,82.0
2022-09-23T07:26:03.585Z,82.0
2022-09-23T07:28:02.441Z,82.0
2022-09-23T07:30:02.264Z,82.0
2022-09-23T07:32:10.056Z,81.0
2022-09-23T07:34:03.034Z,82.0
2022-09-23T07:36:06.171Z,82.0
2022-09-23T07:38:02.146Z,82.0
2022-09-23T07:40:03.328Z,82.0
2022-09-23T07:42:02.866Z,82.0
2022-09-23T07:44:05.690Z,82.0
2022-09-23T07:46:06.650Z,82.0
2022-09-23T07:48:03.168Z,81.0
2022-09-23T07:50:02.178Z,81.0
2022-09-23T07:52:02.591Z,81.0
2022-09-23T07:54:04.957Z,81.0
2022-09-23T07:56:05.345Z,81.0
2022-09-23T07:58:02.799Z,81.0
2022-09-23T08:00:02.815Z,81.0
2022-09-23T08:02:02.397Z,81.0
2022-09-23T08:04:05.554Z,81.0
2022-09-23T08:06:08.293Z,81.0
2022-09-23T08:08:02.542Z,81.0
2022-09-23T08:10:02.797Z,81.0
2022-09-23T08:12:03.153Z,81.0
2022-09-23T08:14:02.263Z,81.0
2022-09-23T08:16:04.053Z,81.0
2022-09-23T08:18:02.321Z,81.0
2022-09-23T08:20:03.144Z,81.0
2022-09-23T08:22:02.221Z,81.0
2022-09-23T08:24:02.567Z,81.0
2022-09-23T08:26:04.910Z,81.0
2022-09-23T08:28:02.657Z,81.0
2022-09-23T08:30:02.220Z,81.0
2022-09-23T08:32:02.820Z,81.0
2022-09-23T08:34:02.307Z,81.0
2022-09-23T08:36:03.179Z,81.0
2022-09-23T08:38:02.174Z,81.0
2022-09-23T08:40:02.546Z,81.0
2022-09-23T08:42:12.876Z,81.0
2022-09-23T08:44:04.865Z,81.0
2022-09-23T08:46:06.061Z,81.0
2022-09-23T08:48:12.710Z,81.0
2022-09-23T08:50:07.416Z,81.0
2022-09-23T08:52:14.515Z,81.0
2022-09-23T08:54:02.586Z,81.0
2022-09-23T08:56:07.011Z,81.0
2022-09-23T08:58:25.400Z,82.0
2022-09-23T09:00:04.403Z,82.0
2022-09-23T09:02:11.746Z,82.0
2022-09-23T09:04:13.515Z,82.0
2022-09-23T09:06:03.216Z,82.0
2022-09-23T09:08:04.840Z,81.0
2022-09-23T09:10:10.542Z,82.0
2022-09-23T09:12:08.810Z,82.0
2022-09-23T09:14:17.876Z,82.0
2022-09-23T09:16:23.954Z,82.0
2022-09-23T09:18:07.233Z,82.0
2022-09-23T09:20:18.348Z,82.0
2022-09-23T09:22:08.883Z,82.0
2022-09-23T09:24:08.163Z,82.0
2022-09-23T09:26:04.430Z,82.0
2022-09-23T09:28:08.983Z,82.0
2022-09-23T09:30:02.439Z,82.0
2022-09-23T09:32:16.746Z,82.0
2022-09-23T09:34:06.042Z,82.0
2022-09-23T09:36:14.935Z,82.0
2022-09-23T09:38:03.557Z,82.0
2022-09-23T09:40:03.085Z,82.0
2022-09-23T09:42:03.771Z,82.0
2022-09-23T09:44:10.338Z,81.0
2022-09-23T09:46:13.746Z,82.0
2022-09-23T09:48:11.827Z,82.0
2022-09-23T09:50:08.287Z,82.0
2022-09-23T09:52:13.230Z,82.0
2022-09-23T09:54:22.581Z,82.0
2022-09-23T09:56:05.990Z,82.0
2022-09-23T09:58:05.472Z,81.0
2022-09-23T10:00:21.432Z,82.0
2022-09-23T10:02:14.232Z,82.0
2022-09-23T10:04:05.439Z,82.0
2022-09-23T10:06:16.998Z,82.0
2022-09-23T10:08:21.148Z,82.0
2022-09-23T10:10:31.851Z,81.0
2022-09-23T10:12:14.474Z,81.0
2022-09-23T10:14:05.924Z,81.0
2022-09-23T10:16:04.181Z,82.0
2022-09-23T10:18:02.842Z,82.0
2022-09-23T10:20:08.786Z,82.0
2022-09-23T10:22:04.505Z,82.0
2022-09-23T10:24:05.386Z,82.0
2022-09-23T10:26:07.624Z,82.0
2022-09-23T10:28:21.198Z,82.0
2022-09-23T10:30:05.618Z,82.0
2022-09-23T10:32:21.226Z,82.0
2022-09-23T10:34:13.823Z,83.0
2022-09-23T10:36:02.211Z,83.0
2022-09-23T10:38:02.223Z,83.0
2022-09-23T10:40:23.291Z,83.0
2022-09-23T10:42:18.630Z,83.0
2022-09-23T10:44:25.653Z,83.0
2022-09-23T10:46:15.279Z,83.0
2022-09-23T10:48:12.286Z,83.0
2022-09-23T10:50:08.175Z,83.0
2022-09-23T10:52:17.100Z,83.0
2022-09-23T10:54:12.814Z,84.0
2022-09-23T10:56:16.574Z,84.0
2022-09-23T10:58:19.409Z,84.0
2022-09-23T11:00:09.814Z,84.0
2022-09-23T11:02:13.393Z,84.0
2022-09-23T11:04:21.279Z,84.0
2022-09-23T11:06:13.082Z,84.0
2022-09-23T11:08:13.737Z,84.0
2022-09-23T11:10:35.250Z,84.0
2022-09-23T11:12:12.162Z,84.0
2022-09-23T11:14:20.954Z,85.0
2022-09-23T11:16:11.265Z,85.0
2022-09-23T11:18:19.033Z,85.0
2022-09-23T11:20:21.171Z,85.0
2022-09-23T11:22:20.783Z,85.0
2022-09-23T11:24:21.166Z,85.0
2022-09-23T11:26:11.257Z,85.0
2022-09-23T11:28:17.792Z,85.0
2022-09-23T11:30:09.098Z,85.0
2022-09-23T11:32:19.193Z,85.0
2022-09-23T11:34:19.770Z,85.0
2022-09-23T11:36:07.361Z,85.0
2022-09-23T11:38:07.136Z,86.0
2022-09-23T11:40:07.226Z,85.0
2022-09-23T11:42:12.389Z,85.0
2022-09-23T11:44:08.334Z,85.0
2022-09-23T11:46:09.139Z,85.0
2022-09-23T11:48:09.516Z,85.0
2022-09-23T11:50:06.256Z,85.0
2022-09-23T11:52:10.566Z,85.0
2022-09-23T11:54:09.850Z,85.0
2022-09-23T11:56:09.819Z,85.0
2022-09-23T11:58:22.609Z,85.0
2022-09-23T12:00:06.723Z,85.0
2022-09-23T12:02:18.410Z,85.0
2022-09-23T12:04:19.118Z,85.0
2022-09-23T12:06:08.659Z,85.0
2022-09-23T12:08:10.505Z,85.0
2022-09-23T12:10:04.935Z,85.0
2022-09-23T12:12:09.780Z,85.0
2022-09-23T12:14:15.579Z,85.0
2022-09-23T12:16:21.417Z,85.0
2022-09-23T12:18:23.126Z,85.0
2022-09-23T12:20:21.170Z,85.0
2022-09-23T12:22:12.814Z,85.0
2022-09-23T12:24:19.800Z,85.0
2022-09-23T12:26:06.289Z,85.0
2022-09-23T12:28:05.949Z,85.0
2022-09-23T12:30:04.687Z,85.0
2022-09-23T12:32:09.508Z,85.0
2022-09-23T12:34:21.010Z,85.0
2022-09-23T12:36:05.343Z,85.0
2022-09-23T12:38:02.593Z,85.0
2022-09-23T12:40:09.929Z,85.0
2022-09-23T12:42:05.363Z,85.0
2022-09-23T12:44:22.820Z,85.0
2022-09-23T12:46:20.364Z,85.0
2022-09-23T12:48:04.240Z,85.0
2022-09-23T12:50:02.211Z,85.0
2022-09-23T12:52:13.725Z,85.0
2022-09-23T12:54:22.151Z,85.0
2022-09-23T12:56:15.356Z,85.0
2022-09-23T12:58:13.603Z,85.0
2022-09-23T13:00:22.190Z,85.0
2022-09-23T13:02:21.370Z,85.0
2022-09-23T13:04:12.473Z,85.0
2022-09-23T13:06:11.626Z,85.0
2022-09-23T13:08:07.894Z,85.0
2022-09-23T13:10:14.096Z,85.0
2022-09-23T13:12:06.345Z,85.0
2022-09-23T13:14:06.619Z,85.0
2022-09-23T13:16:13.556Z,85.0
2022-09-23T13:18:21.254Z,85.0
2022-09-23T13:20:06.232Z,85.0
2022-09-23T13:22:07.559Z,85.0
2022-09-23T13:24:18.562Z,85.0
2022-09-23T13:26:12.185Z,85.0
2022-09-23T13:28:04.057Z,85.0
2022-09-23T13:30:07.771Z,85.0
2022-09-23T13:32:04.703Z,85.0
2022-09-23T13:34:07.453Z,85.0
2022-09-23T13:36:03.939Z,85.0
2022-09-23T13:38:11.626Z,85.0
2022-09-23T13:40:21.099Z,85.0
2022-09-23T13:42:04.932Z,85.0
2022-09-23T13:44:03.306Z,85.0
2022-09-23T13:46:04.912Z,85.0
2022-09-23T13:48:06.943Z,85.0
2022-09-23T13:50:02.709Z,85.0
2022-09-23T13:52:04.377Z,85.0
2022-09-23T13:54:04.695Z,85.0
2022-09-23T13:56:05.115Z,85.0
2022-09-23T13:58:05.909Z,84.0
2022-09-23T14:00:12.890Z,84.0
2022-09-23T14:02:04.090Z,84.0
2022-09-23T14:04:03.763Z,84.0
2022-09-23T14:06:05.277Z,84.0
2022-09-23T14:08:03.300Z,84.0
2022-09-23T14:10:05.261Z,84.0
2022-09-23T14:12:04.392Z,84.0
2022-09-23T14:14:06.648Z,84.0
2022-09-23T14:16:04.765Z,84.0
2022-09-23T14:18:06.137Z,84.0
2022-09-23T14:20:03.055Z,84.0
2022-09-23T14:22:03.161Z,84.0
2022-09-23T14:24:13.786Z,84.0
2022-09-23T14:26:02.731Z,84.0
2022-09-23T14:28:02.688Z,83.0
2022-09-23T14:30:03.932Z,83.0
2022-09-23T14:32:05.405Z,83.0
2022-09-23T14:34:03.098Z,83.0
2022-09-23T14:36:08.610Z,84.0
2022-09-23T14:38:11.817Z,83.0
2022-09-23T14:40:04.497Z,83.0
2022-09-23T14:42:06.253Z,83.0
2022-09-23T14:44:03.044Z,83.0
2022-09-23T14:46:02.269Z,83.0
2022-09-23T14:48:08.627Z,83.0
2022-09-23T14:50:11.873Z,83.0
2022-09-23T14:52:06.756Z,83.0
2022-09-23T14:54:21.213Z,82.0
2022-09-23T14:56:14.351Z,82.0
2022-09-23T14:58:05.035Z,82.0
2022-09-23T15:00:14.090Z,83.0
2022-09-23T15:02:03.135Z,83.0
2022-09-23T15:04:12.232Z,83.0
2022-09-23T15:06:08.969Z,83.0
2022-09-23T15:08:03.504Z,83.0
2022-09-23T15:10:04.238Z,83.0
2022-09-23T15:12:05.832Z,83.0
2022-09-23T15:14:33.185Z,83.0
2022-09-23T15:16:04.325Z,83.0
2022-09-23T15:18:04.540Z,83.0
2022-09-23T15:20:08.082Z,83.0
2022-09-23T15:22:03.011Z,83.0
2022-09-23T15:24:02.634Z,83.0
2022-09-23T15:26:06.475Z,83.0
2022-09-23T15:28:13.778Z,83.0
2022-09-23T15:30:15.008Z,83.0
2022-09-23T15:32:02.504Z,83.0
2022-09-23T15:34:03.252Z,83.0
2022-09-23T15:36:02.880Z,83.0
2022-09-23T15:38:03.286Z,82.0
2022-09-23T15:40:02.750Z,82.0
2022-09-23T15:42:02.138Z,82.0
2022-09-23T15:44:11.947Z,82.0
2022-09-23T15:46:07.366Z,83.0
2022-09-23T15:48:07.664Z,81.0
2022-09-23T15:50:02.334Z,82.0
2022-09-23T15:52:04.296Z,82.0
2022-09-23T15:54:02.135Z,81.0
2022-09-23T15:56:03.869Z,81.0
2022-09-23T15:58:02.229Z,81.0
2022-09-23T16:00:02.384Z,82.0
2022-09-23T16:02:07.814Z,82.0
2022-09-23T16:04:04.048Z,81.0
2022-09-23T16:06:03.718Z,81.0
2022-09-23T16:08:08.737Z,82.0
2022-09-23T16:10:02.201Z,82.0
2022-09-23T16:12:03.064Z,81.0
2022-09-23T16:14:02.389Z,80.0
2022-09-23T16:16:02.506Z,81.0
2022-09-23T16:18:02.193Z,81.0
2022-09-23T16:20:02.855Z,81.0
2022-09-23T16:22:03.931Z,81.0
2022-09-23T16:24:02.352Z,80.0
2022-09-23T16:26:07.176Z,80.0
2022-09-23T16:28:04.066Z,78.0
2022-09-23T16:30:02.374Z,80.0
2022-09-23T16:32:03.291Z,79.0
2022-09-23T16:34:02.179Z,79.0
2022-09-23T16:36:03.773Z,77.0
2022-09-23T16:38:02.363Z,77.0
2022-09-23T16:40:03.763Z,79.0
2022-09-23T16:42:02.957Z,78.0
2022-09-23T16:44:05.905Z,79.0
2022-09-23T16:46:02.290Z,78.0
2022-09-23T16:48:02.419Z,78.0
2022-09-23T16:50:02.423Z,78.0
2022-09-23T16:52:02.240Z,78.0
2022-09-23T16:54:02.177Z,77.0
2022-09-23T16:56:07.519Z,76.0
2022-09-23T16:58:02.238Z,76.0
2022-09-23T17:00:12.054Z,77.0
2022-09-23T17:02:11.863Z,75.0
2022-09-23T17:04:03.291Z,75.0
2022-09-23T17:06:07.778Z,75.0
2022-09-23T17:08:03.708Z,75.0
2022-09-23T17:10:02.535Z,75.0
2022-09-23T17:12:09.231Z,76.0
2022-09-23T17:14:02.898Z,75.0
2022-09-23T17:16:03.230Z,74.0
2022-09-23T17:18:02.246Z,75.0
2022-09-23T17:20:05.453Z,74.0
2022-09-23T17:22:02.260Z,74.0
2022-09-23T17:24:02.551Z,74.0
2022-09-23T17:26:05.035Z,74.0
2022-09-23T17:28:03.114Z,74.0
2022-09-23T17:30:02.258Z,73.0
2022-09-23T17:32:03.942Z,73.0
2022-09-23T17:34:02.241Z,72.0
2022-09-23T17:36:06.900Z,73.0
2022-09-23T17:38:02.354Z,73.0
2022-09-23T17:40:02.701Z,73.0
2022-09-23T17:42:03.145Z,73.0
2022-09-23T17:44:04.321Z,72.0
2022-09-23T17:46:06.074Z,72.0
2022-09-23T17:48:02.459Z,72.0
2022-09-23T17:50:02.347Z,72.0
2022-09-23T17:52:03.967Z,72.0
2022-09-23T17:54:02.159Z,72.0
2022-09-23T17:56:05.652Z,71.0
2022-09-23T17:58:02.220Z,72.0
2022-09-23T18:00:02.784Z,72.0
2022-09-23T18:02:03.210Z,71.0
2022-09-23T18:04:05.142Z,70.0
2022-09-23T18:06:12.430Z,71.0
2022-09-23T18:08:05.872Z,71.0
2022-09-23T18:10:02.264Z,70.0
2022-09-23T18:12:02.357Z,71.0
2022-09-23T18:14:04.527Z,71.0
2022-09-23T18:16:02.977Z,71.0
2022-09-23T18:18:02.390Z,71.0
2022-09-23T18:20:03.171Z,70.0
2022-09-23T18:22:02.571Z,71.0
2022-09-23T18:24:28.044Z,70.0
2022-09-23T18:26:03.804Z,71.0
2022-09-23T18:28:02.655Z,71.0
2022-09-23T18:30:02.162Z,71.0
2022-09-23T18:32:03.408Z,72.0
2022-09-23T18:34:04.679Z,72.0
2022-09-23T18:36:02.478Z,72.0
2022-09-23T18:38:02.357Z,73.0
2022-09-23T18:40:03.819Z,72.0
2022-09-23T18:42:02.167Z,72.0
2022-09-23T18:44:03.378Z,72.0
2022-09-23T18:46:04.567Z,72.0
2022-09-23T18:48:11.794Z,72.0
2022-09-23T18:50:11.809Z,72.0
2022-09-23T18:52:03.347Z,72.0
2022-09-23T18:54:04.987Z,72.0
2022-09-23T18:56:06.476Z,73.0
2022-09-23T18:58:02.434Z,73.0
2022-09-23T19:00:02.522Z,72.0
2022-09-23T19:02:02.489Z,73.0
2022-09-23T19:04:03.545Z,72.0
2022-09-23T19:06:03.245Z,72.0
2022-09-23T19:08:02.737Z,71.0
2022-09-23T19:10:02.218Z,71.0
2022-09-23T19:12:02.906Z,71.0
2022-09-23T19:14:05.207Z,71.0
2022-09-23T19:16:03.417Z,71.0
2022-09-23T19:18:02.155Z,70.0
2022-09-23T19:20:02.422Z,70.0
2022-09-23T19:22:02.438Z,71.0
2022-09-23T19:24:05.251Z,71.0
2022-09-23T19:26:05.713Z,69.0
2022-09-23T19:28:05.050Z,69.0
2022-09-23T19:30:02.587Z,69.0
2022-09-23T19:32:02.641Z,70.0
2022-09-23T19:34:10.280Z,69.0
2022-09-23T19:36:02.290Z,68.0
2022-09-23T19:38:03.163Z,68.0
2022-09-23T19:40:02.422Z,68.0
2022-09-23T19:42:03.353Z,66.0
2022-09-23T19:44:04.776Z,66.0
2022-09-23T19:46:02.171Z,64.0
2022-09-23T19:48:02.589Z,64.0
2022-09-23T19:50:02.735Z,64.0
2022-09-23T19:52:02.443Z,65.0
2022-09-23T19:54:04.466Z,65.0
2022-09-23T19:56:04.535Z,65.0
2022-09-23T19:58:02.987Z,65.0
2022-09-23T20:00:02.411Z,64.0
2022-09-23T20:02:02.685Z,65.0
2022-09-23T20:04:02.649Z,64.0
2022-09-23T20:06:02.524Z,62.0
2022-09-23T20:08:03.698Z,63.0
2022-09-23T20:10:02.387Z,63.0
2022-09-23T20:12:02.689Z,63.0
2022-09-23T20:14:04.502Z,62.0
2022-09-23T20:16:05.858Z,62.0
2022-09-23T20:18:02.231Z,60.0
2022-09-23T20:20:02.529Z,62.0
2022-09-23T20:22:11.623Z,61.0
2022-09-23T20:24:05.287Z,60.0
2022-09-23T20:26:14.351Z,61.0
2022-09-23T20:28:02.443Z,62.0
2022-09-23T20:30:02.777Z,63.0
2022-09-23T20:32:03.226Z,61.0
2022-09-23T20:34:05.126Z,60.0
2022-09-23T20:36:02.661Z,61.0
2022-09-23T20:38:07.292Z,61.0
2022-09-23T20:40:02.484Z,61.0
2022-09-23T20:42:02.592Z,60.0
2022-09-23T20:44:02.496Z,60.0
2022-09-23T20:46:04.967Z,60.0
2022-09-23T20:48:02.895Z,61.0
2022-09-23T20:50:02.394Z,61.0
2022-09-23T20:52:02.513Z,60.0
2022-09-23T20:54:02.852Z,60.0
2022-09-23T20:56:05.458Z,61.0
2022-09-23T20:58:03.147Z,61.0
2022-09-23T21:00:02.395Z,62.0
2022-09-23T21:02:04.276Z,61.0
2022-09-23T21:04:04.575Z,61.0
2022-09-23T21:06:03.795Z,61.0
2022-09-23T21:08:03.857Z,61.0
2022-09-23T21:10:04.393Z,61.0
2022-09-23T21:12:03.085Z,62.0
2022-09-23T21:14:02.334Z,62.0
2022-09-23T21:16:03.997Z,61.0
2022-09-23T21:18:02.332Z,61.0
2022-09-23T21:20:02.695Z,61.0
2022-09-23T21:22:02.238Z,61.0
2022-09-23T21:24:33.603Z,61.0
2022-09-23T21:26:04.364Z,62.0
2022-09-23T21:28:03.128Z,61.0
2022-09-23T21:30:02.570Z,60.0
2022-09-23T21:32:02.641Z,61.0
2022-09-23T21:34:04.756Z,62.0
2022-09-23T21:36:04.201Z,60.0
2022-09-23T21:38:02.367Z,60.0
2022-09-23T21:40:11.800Z,60.0
2022-09-23T21:42:02.930Z,60.0
2022-09-23T21:44:04.201Z,60.0
2022-09-23T21:46:04.419Z,60.0
2022-09-23T21:48:02.383Z,60.0
2022-09-23T21:50:02.436Z,61.0
2022-09-23T21:52:02.506Z,60.0
2022-09-23T21:54:02.419Z,59.0
2022-09-23T21:56:03.813Z,59.0
2022-09-23T21:58:02.226Z,61.0
2022-09-23T22:00:02.789Z,61.0
2022-09-23T22:02:02.490Z,59.0
2022-09-23T22:04:07.527Z,59.0
2022-09-23T22:06:05.298Z,60.0
2022-09-23T22:08:02.395Z,59.0
2022-09-23T22:10:02.192Z,58.0
2022-09-23T22:12:07.303Z,59.0
2022-09-23T22:14:06.704Z,57.0
2022-09-23T22:16:05.646Z,57.0
2022-09-23T22:18:05.213Z,58.0
2022-09-23T22:20:02.466Z,58.0
2022-09-23T22:22:06.961Z,58.0
2022-09-23T22:24:04.381Z,58.0
2022-09-23T22:26:04.466Z,57.0
2022-09-23T22:28:11.748Z,57.0
2022-09-23T22:30:12.484Z,58.0
2022-09-23T22:32:13.082Z,57.0
2022-09-23T22:34:02.188Z,58.0
2022-09-23T22:36:03.596Z,58.0
2022-09-23T22:38:03.364Z,59.0
2022-09-23T22:40:04.944Z,59.0
2022-09-23T22:42:04.884Z,59.0
2022-09-23T22:44:03.271Z,59.0
2022-09-23T22:46:02.741Z,59.0
2022-09-23T22:48:04.817Z,60.0
2022-09-23T22:50:02.992Z,59.0
2022-09-23T22:52:03.671Z,58.0
2022-09-23T22:54:02.357Z,58.0
2022-09-23T22:56:02.981Z,59.0
2022-09-23T22:58:21.355Z,58.0
2022-09-23T23:00:03.072Z,58.0
2022-09-23T23:02:03.718Z,58.0
2022-09-23T23:04:03.421Z,57.0
2022-09-23T23:06:04.738Z,58.0
2022-09-23T23:08:02.509Z,59.0
2022-09-23T23:10:02.836Z,57.0
2022-09-23T23:12:03.251Z,57.0
2022-09-23T23:14:03.069Z,58.0
2022-09-23T23:16:05.463Z,58.0
2022-09-23T23:18:02.339Z,58.0
2022-09-23T23:20:03.042Z,57.0
2022-09-23T23:22:02.800Z,56.0
2022-09-23T23:24:04.307Z,56.0
2022-09-23T23:26:09.694Z,56.0
2022-09-23T23:28:05.204Z,57.0
2022-09-23T23:30:03.057Z,57.0
2022-09-23T23:32:02.511Z,56.0
2022-09-23T23:34:02.224Z,56.0
2022-09-23T23:36:03.363Z,56.0
2022-09-23T23:38:05.820Z,57.0
2022-09-23T23:40:02.456Z,56.0
2022-09-23T23:42:03.221Z,57.0
2022-09-23T23:44:02.473Z,56.0
2022-09-23T23:46:02.172Z,56.0
2022-09-23T23:48:02.745Z,56.0
2022-09-23T23:50:04.164Z,56.0
2022-09-23T23:52:03.105Z,55.0
2022-09-23T23:54:03.765Z,56.0
2022-09-23T23:56:02.612Z,56.0
2022-09-23T23:58:02.782Z,57.0
